Time;durP1;ratioP1;P1;durP2;ratioP2;P2;SDS_P1;SDS_P2;PMS_P1;PMS_P2;Temp;Humidity;BMP_temperature;BMP_pressure;BME280_temperature;BME280_humidity;BME280_pressure;Samples;Min_cycle;Max_cycle;Signal;HPM_P1;HPM_P2
2021/07/10 00:02:17;;;;;;;;;2.00;2.00;;;;;26.54;43.84;98902.13;6280219;27;97572;-63
2021/07/10 00:05:21;;;;;;;;;3.00;3.00;;;;;26.53;43.82;98892.22;6283919;27;97090;-63
2021/07/10 00:08:24;;;;;;;;;4.00;3.40;;;;;26.56;43.54;98892.38;6266167;27;99515;-63
2021/07/10 00:11:27;;;;;;;;;3.00;3.00;;;;;26.50;43.36;98899.22;6285042;27;96556;-63
2021/07/10 00:14:31;;;;;;;;;2.00;2.00;;;;;26.50;43.44;98901.97;6284091;27;96629;-63
2021/07/10 00:17:35;;;;;;;;;3.00;3.00;;;;;26.38;43.67;98906.53;6285243;27;97480;-63
2021/07/10 00:20:38;;;;;;;;;3.25;3.25;;;;;26.43;43.55;98921.03;6285521;27;97394;-63
2021/07/10 00:23:41;;;;;;;;;2.80;2.80;;;;;26.39;43.76;98916.47;6284534;27;96655;-64
2021/07/10 00:26:45;;;;;;;;;3.00;3.00;;;;;26.32;43.54;98905.06;6285965;27;97566;-64
2021/07/10 00:29:49;;;;;;;;;4.00;4.00;;;;;26.28;43.71;98907.69;6285473;27;96921;-63
2021/07/10 00:32:52;;;;;;;;;2.00;2.00;;;;;26.18;43.69;98925.34;6283961;27;97120;-63
2021/07/10 00:35:56;;;;;;;;;3.00;3.00;;;;;26.23;43.67;98924.41;6288201;27;98648;-64
2021/07/10 00:38:59;;;;;;;;;3.00;2.33;;;;;26.20;43.76;98920.31;6284509;27;97479;-63
2021/07/10 00:42:02;;;;;;;;;2.00;2.00;;;;;26.14;43.49;98931.84;6290300;27;97477;-63
2021/07/10 00:45:09;;;;;;;;;2.40;2.40;;;;;26.16;43.61;98943.38;6287434;27;97666;-63
2021/07/10 00:48:12;;;;;;;;;2.00;2.00;;;;;26.08;43.62;98953.28;6279643;27;97322;-64
2021/07/10 00:51:16;;;;;;;;;2.00;2.00;;;;;26.04;43.88;98952.31;6288121;27;96676;-64
2021/07/10 00:54:20;;;;;;;;;1.50;1.50;;;;;25.95;43.66;98948.69;6289597;27;96559;-63
2021/07/10 00:57:23;;;;;;;;;2.00;1.40;;;;;25.91;43.68;98952.41;6289572;27;97212;-64
2021/07/10 01:00:28;;;;;;;;;2.00;2.00;;;;;25.85;43.64;98949.81;6289108;27;97123;-63
2021/07/10 01:03:33;;;;;;;;;2.00;2.00;;;;;25.82;43.71;98955.16;6288188;27;96382;-63
2021/07/10 01:06:39;;;;;;;;;3.00;1.60;;;;;25.84;43.57;98953.72;6289513;27;97543;-63
2021/07/10 01:09:42;;;;;;;;;1.00;1.00;;;;;25.85;43.47;98963.59;6289116;27;96476;-63
2021/07/10 01:12:48;;;;;;;;;2.00;2.00;;;;;25.88;43.53;98963.00;6287697;27;96675;-63
2021/07/10 01:15:53;;;;;;;;;1.40;1.40;;;;;25.88;43.51;98959.41;6291720;27;96889;-64
2021/07/10 01:18:56;;;;;;;;;1.80;1.00;;;;;25.85;43.59;98960.06;6287735;27;96898;-63
2021/07/10 01:22:01;;;;;;;;;3.00;3.00;;;;;25.79;43.60;98966.84;6287940;27;96817;-63
2021/07/10 01:25:05;;;;;;;;;1.20;1.00;;;;;25.61;43.87;98959.66;6287395;27;96642;-63
2021/07/10 01:28:09;;;;;;;;;1.00;1.00;;;;;25.71;43.79;98985.00;6287412;27;96971;-63
2021/07/10 01:31:12;;;;;;;;;1.20;1.20;;;;;25.70;44.50;98986.16;6286830;27;97403;-64
2021/07/10 01:34:16;;;;;;;;;2.40;2.40;;;;;25.63;44.38;98972.00;6288554;27;97490;-63
2021/07/10 01:37:21;;;;;;;;;2.00;1.60;;;;;25.62;43.97;98969.53;6288235;27;97433;-63
2021/07/10 01:40:26;;;;;;;;;1.00;1.00;;;;;25.52;43.85;98964.25;6287116;27;97940;-63
2021/07/10 01:43:29;;;;;;;;;2.00;2.00;;;;;25.44;43.61;98961.16;6288661;27;97452;-63
2021/07/10 01:46:32;;;;;;;;;1.00;1.00;;;;;25.46;44.00;98986.47;6279500;27;96561;-63
2021/07/10 01:49:36;;;;;;;;;1.00;1.00;;;;;25.46;44.06;98980.97;6270401;27;96873;-63
2021/07/10 01:52:41;;;;;;;;;1.00;1.00;;;;;25.49;43.88;98976.75;6286767;27;96806;-63
2021/07/10 01:55:45;;;;;;;;;2.00;2.00;;;;;25.50;43.51;98977.59;6288712;27;97435;-63
2021/07/10 01:58:48;;;;;;;;;2.00;2.00;;;;;25.56;43.80;98990.16;6287988;27;96716;-63
2021/07/10 02:01:52;;;;;;;;;1.00;1.00;;;;;25.53;43.88;98996.25;6279809;27;97102;-63
2021/07/10 02:04:55;;;;;;;;;1.60;1.60;;;;;25.40;44.32;98987.78;6284772;27;97995;-63
2021/07/10 02:08:01;;;;;;;;;1.00;1.00;;;;;25.35;44.41;98984.31;6286876;27;97476;-64
2021/07/10 02:11:04;;;;;;;;;2.00;2.00;;;;;25.33;44.71;98990.16;6288073;27;97112;-63
2021/07/10 02:14:07;;;;;;;;;1.00;1.00;;;;;25.30;44.70;98998.25;6282699;27;96719;-63
2021/07/10 02:17:11;;;;;;;;;2.00;2.00;;;;;25.27;44.89;99009.91;6286248;27;98723;-63
2021/07/10 02:20:19;;;;;;;;;2.00;2.00;;;;;25.22;44.67;99021.06;6287746;27;97000;-63
2021/07/10 02:23:24;;;;;;;;;2.40;2.00;;;;;25.25;44.87;99017.69;6287793;27;96537;-63
2021/07/10 02:26:28;;;;;;;;;3.60;3.00;;;;;25.17;45.03;99016.50;6284550;27;96835;-64
2021/07/10 02:29:31;;;;;;;;;2.25;2.00;;;;;25.08;45.33;99003.78;6286532;27;97139;-63
2021/07/10 02:32:35;;;;;;;;;2.00;2.00;;;;;25.08;45.44;98999.06;6286795;27;96483;-63
2021/07/10 02:35:38;;;;;;;;;1.60;1.60;;;;;25.10;45.89;99013.38;6285932;27;99129;-63
2021/07/10 02:38:43;;;;;;;;;2.00;1.00;;;;;25.06;45.41;99025.34;6286396;27;98023;-63
2021/07/10 02:41:46;;;;;;;;;1.00;1.00;;;;;25.03;46.11;99035.88;6287338;27;97008;-64
2021/07/10 02:44:50;;;;;;;;;1.00;1.00;;;;;24.99;46.03;99032.13;6287400;27;96865;-63
2021/07/10 02:47:54;;;;;;;;;2.00;1.00;;;;;25.01;46.35;99021.59;6286302;27;96980;-63
2021/07/10 02:50:57;;;;;;;;;3.00;3.00;;;;;25.04;45.32;99017.38;6285932;27;97469;-63
2021/07/10 02:54:02;;;;;;;;;2.20;2.20;;;;;25.06;45.25;99015.13;6287495;27;96585;-63
2021/07/10 02:57:05;;;;;;;;;1.00;1.00;;;;;25.09;44.89;99008.16;6268083;27;97117;-63
2021/07/10 03:00:12;;;;;;;;;1.25;1.25;;;;;25.14;44.96;99000.59;6280759;27;96725;-63
2021/07/10 03:03:16;;;;;;;;;1.75;1.75;;;;;25.16;44.86;98995.56;6286145;27;96879;-63
2021/07/10 03:06:19;;;;;;;;;3.00;2.00;;;;;25.18;44.65;98987.78;6285188;27;97502;-63
2021/07/10 03:09:24;;;;;;;;;2.00;2.00;;;;;25.24;44.19;98991.22;6286360;27;97118;-64
2021/07/10 03:12:27;;;;;;;;;1.00;1.00;;;;;25.20;44.02;98981.97;6291239;27;97207;-63
2021/07/10 03:15:30;;;;;;;;;1.75;1.75;;;;;25.26;44.37;98972.44;6284752;27;96797;-63
2021/07/10 03:18:33;;;;;;;;;3.00;2.00;;;;;25.20;44.46;98966.22;6287386;27;97047;-63
2021/07/10 03:21:37;;;;;;;;;2.00;2.00;;;;;25.20;44.62;98971.75;6283483;27;96701;-63
2021/07/10 03:24:41;;;;;;;;;2.00;2.00;;;;;25.18;44.66;98956.63;6284497;27;97269;-63
2021/07/10 03:27:45;;;;;;;;;2.00;2.00;;;;;25.17;44.68;98953.03;6294344;27;98464;-63
2021/07/10 03:30:52;;;;;;;;;2.00;2.00;;;;;25.18;44.51;98959.38;6285291;27;97557;-63
2021/07/10 03:33:55;;;;;;;;;4.00;3.00;;;;;25.14;44.82;98961.97;6286141;27;97516;-63
2021/07/10 03:36:58;;;;;;;;;2.00;2.00;;;;;25.12;44.71;98966.97;6285752;27;96682;-63
2021/07/10 03:40:05;;;;;;;;;2.40;2.40;;;;;25.13;44.80;98963.06;6274514;27;97486;-63
2021/07/10 03:43:08;;;;;;;;;2.00;2.00;;;;;25.11;44.73;98967.31;6282949;27;97597;-64
2021/07/10 03:46:12;;;;;;;;;2.00;2.00;;;;;25.05;44.82;98963.03;6286383;27;97094;-63
2021/07/10 03:49:15;;;;;;;;;3.00;3.00;;;;;25.03;45.03;98968.84;6285868;27;97883;-63
2021/07/10 03:52:19;;;;;;;;;2.00;2.00;;;;;25.00;45.14;98975.00;6272511;27;97901;-64
2021/07/10 03:55:23;;;;;;;;;3.00;3.00;;;;;25.05;44.91;98966.59;6285478;27;97430;-63
2021/07/10 03:58:27;;;;;;;;;2.60;2.00;;;;;25.02;44.96;98976.31;6284599;27;96970;-63
2021/07/10 04:01:31;;;;;;;;;3.00;3.00;;;;;25.00;45.09;98977.78;6285693;27;97469;-63
2021/07/10 04:04:35;;;;;;;;;3.00;2.25;;;;;25.00;45.09;98972.25;6284114;27;99552;-63
2021/07/10 04:07:38;;;;;;;;;2.60;2.60;;;;;24.95;45.30;98975.13;6285074;27;97468;-63
2021/07/10 04:10:43;;;;;;;;;3.00;3.00;;;;;24.91;45.33;98985.16;6285649;27;97909;-63
2021/07/10 04:13:46;;;;;;;;;3.00;3.00;;;;;24.84;45.56;98977.28;6282659;27;97114;-63
2021/07/10 04:16:49;;;;;;;;;2.00;2.00;;;;;24.78;45.53;98981.28;6289399;27;97738;-63
2021/07/10 04:19:52;;;;;;;;;1.00;1.00;;;;;24.72;45.66;98984.50;6290515;27;97053;-63
2021/07/10 04:22:56;;;;;;;;;1.00;1.00;;;;;24.56;45.59;98987.63;6289799;27;97467;-63
2021/07/10 04:26:00;;;;;;;;;2.20;1.20;;;;;24.54;45.88;98997.31;6289509;27;98007;-63
2021/07/10 04:29:03;;;;;;;;;2.00;2.00;;;;;24.64;45.83;99008.09;6268371;27;97721;-63
2021/07/10 04:32:07;;;;;;;;;1.20;1.00;;;;;24.64;45.78;99015.56;6289924;27;96557;-63
2021/07/10 04:35:12;;;;;;;;;4.00;4.00;;;;;24.57;45.92;99018.75;6286099;27;97421;-63
2021/07/10 04:38:15;;;;;;;;;1.80;1.80;;;;;24.65;46.02;99017.19;6279080;27;97554;-63
2021/07/10 04:41:20;;;;;;;;;2.00;1.00;;;;;24.73;45.91;99016.47;6286501;27;97335;-63
2021/07/10 04:44:23;;;;;;;;;1.00;1.00;;;;;24.71;46.01;99027.81;6289356;27;97424;-64
2021/07/10 04:47:27;;;;;;;;;4.00;2.00;;;;;24.79;45.80;99027.03;6278951;27;97478;-63
2021/07/10 04:50:30;;;;;;;;;1.00;1.00;;;;;24.78;45.31;99024.59;6289210;27;97482;-63
2021/07/10 04:53:33;;;;;;;;;1.00;1.00;;;;;24.66;45.15;99011.38;6271214;27;99053;-63
2021/07/10 04:56:38;;;;;;;;;3.00;3.00;;;;;24.91;45.40;99030.13;6287749;27;98448;-63
2021/07/10 04:59:41;;;;;;;;;2.00;2.00;;;;;24.98;45.24;99033.25;6284602;27;98337;-63
2021/07/10 05:02:45;;;;;;;;;2.00;2.00;;;;;25.08;45.17;99034.94;6281027;27;97659;-63
2021/07/10 05:05:48;;;;;;;;;1.00;1.00;;;;;25.23;44.88;99040.09;6276198;27;96628;-63
2021/07/10 05:08:51;;;;;;;;;2.40;2.00;;;;;25.31;44.78;99033.00;6287061;27;97135;-64
2021/07/10 05:11:56;;;;;;;;;1.00;1.00;;;;;25.30;44.45;99014.81;6287853;27;97523;-63
2021/07/10 05:14:59;;;;;;;;;1.60;1.60;;;;;25.45;44.24;99026.28;6289728;27;97826;-63
2021/07/10 05:18:03;;;;;;;;;0.80;0.80;;;;;25.25;44.01;99018.53;6276596;27;97461;-63
2021/07/10 05:21:06;;;;;;;;;2.00;2.00;;;;;25.22;44.42;99018.31;6288219;27;97412;-63
2021/07/10 05:24:10;;;;;;;;;1.00;1.00;;;;;25.21;44.31;99025.81;6275409;27;96790;-63
2021/07/10 05:27:14;;;;;;;;;1.40;1.40;;;;;25.32;43.87;99023.56;6288638;27;98050;-63
2021/07/10 05:30:18;;;;;;;;;2.00;2.00;;;;;25.37;43.81;99026.19;6288188;27;97608;-63
2021/07/10 05:33:22;;;;;;;;;2.00;2.00;;;;;25.53;43.76;99032.97;6287088;27;97088;-63
2021/07/10 05:36:25;;;;;;;;;3.00;2.00;;;;;25.58;43.83;99034.81;6293576;27;97750;-63
2021/07/10 05:39:28;;;;;;;;;2.40;2.00;;;;;25.59;43.83;99036.44;6283264;27;97180;-63
2021/07/10 05:42:32;;;;;;;;;2.00;2.00;;;;;25.66;43.50;99040.38;6286770;27;98028;-63
2021/07/10 05:45:36;;;;;;;;;3.00;2.00;;;;;25.64;43.42;99036.31;6286936;27;97450;-63
2021/07/10 05:48:39;;;;;;;;;2.00;2.00;;;;;25.63;43.59;99046.53;6288971;27;97425;-64
2021/07/10 05:51:42;;;;;;;;;2.00;2.00;;;;;25.67;43.60;99046.72;6289007;27;98122;-63
2021/07/10 05:54:45;;;;;;;;;2.00;2.00;;;;;25.71;43.52;99053.22;6286964;27;96614;-63
2021/07/10 05:57:50;;;;;;;;;2.00;2.00;;;;;25.83;43.64;99064.50;6288575;27;97054;-63
2021/07/10 06:00:53;;;;;;;;;2.00;2.00;;;;;25.65;43.07;99043.47;6288206;27;96646;-63
2021/07/10 06:03:56;;;;;;;;;2.00;2.00;;;;;25.96;43.30;99052.53;6274309;27;96639;-63
2021/07/10 06:07:00;;;;;;;;;3.60;3.00;;;;;26.02;42.87;99059.56;6287973;27;97388;-63
2021/07/10 06:10:05;;;;;;;;;2.00;2.00;;;;;26.04;43.04;99062.84;6285922;27;99968;-63
2021/07/10 06:13:10;;;;;;;;;1.00;1.00;;;;;26.18;42.76;99068.25;6286678;27;99771;-63
2021/07/10 06:16:13;;;;;;;;;1.60;1.00;;;;;26.33;43.00;99067.84;6288062;27;97303;-63
2021/07/10 06:19:16;;;;;;;;;2.00;1.00;;;;;26.48;42.18;99070.16;6285519;27;97372;-63
2021/07/10 06:22:20;;;;;;;;;1.00;1.00;;;;;26.70;41.49;99070.03;6283830;27;97551;-63
2021/07/10 06:25:23;;;;;;;;;3.00;2.20;;;;;26.98;41.20;99076.09;6281296;27;97442;-65
2021/07/10 06:28:27;;;;;;;;;3.00;2.00;;;;;27.24;40.78;99066.97;6275195;27;96530;-64
2021/07/10 06:31:31;;;;;;;;;3.00;3.00;;;;;27.34;40.47;99075.75;6287979;27;97386;-62
2021/07/10 06:34:34;;;;;;;;;2.00;2.00;;;;;27.54;40.38;99072.34;6285211;27;96632;-63
2021/07/10 06:37:38;;;;;;;;;2.00;2.00;;;;;27.57;39.75;99074.44;6282711;27;97395;-62
2021/07/10 06:40:41;;;;;;;;;2.00;2.00;;;;;27.66;39.36;99077.19;6279993;27;98421;-62
2021/07/10 06:43:45;;;;;;;;;2.00;1.75;;;;;27.80;40.02;99066.75;6273841;27;99741;-62
2021/07/10 06:46:49;;;;;;;;;2.00;2.00;;;;;27.75;39.49;99069.69;6282834;27;97438;-62
2021/07/10 06:49:52;;;;;;;;;2.00;2.00;;;;;27.88;39.51;99062.31;6286495;27;97568;-64
2021/07/10 06:52:56;;;;;;;;;1.00;1.00;;;;;27.83;39.11;99056.94;6287119;27;97664;-64
2021/07/10 06:55:59;;;;;;;;;5.00;4.00;;;;;27.87;38.64;99058.72;6285492;27;96931;-64
2021/07/10 06:59:03;;;;;;;;;2.00;2.00;;;;;27.79;38.95;99067.88;6285055;27;96751;-65
2021/07/10 07:02:08;;;;;;;;;4.40;4.40;;;;;27.83;39.54;99059.72;6286297;27;97068;-62
2021/07/10 07:05:12;;;;;;;;;2.00;2.00;;;;;27.98;38.84;99071.09;6283343;27;96766;-63
2021/07/10 07:08:15;;;;;;;;;3.00;2.00;;;;;27.99;38.87;99072.72;6284981;27;97587;-62
2021/07/10 07:11:18;;;;;;;;;4.25;4.00;;;;;27.87;38.83;99069.81;6286424;27;97415;-63
2021/07/10 07:14:23;;;;;;;;;2.20;2.20;;;;;27.88;38.52;99065.09;6284792;27;96672;-62
2021/07/10 07:17:26;;;;;;;;;4.00;3.00;;;;;27.92;39.34;99071.59;6281579;27;97479;-62
2021/07/10 07:20:30;;;;;;;;;3.00;3.00;;;;;28.08;39.31;99077.41;6285946;27;97515;-63
2021/07/10 07:23:34;;;;;;;;;2.60;2.60;;;;;28.11;38.84;99083.13;6286030;27;96573;-62
2021/07/10 07:26:37;;;;;;;;;3.00;3.00;;;;;28.20;38.09;99074.78;6288041;27;96621;-64
2021/07/10 07:29:42;;;;;;;;;3.00;3.00;;;;;28.31;38.61;99071.28;6287062;27;97135;-64
2021/07/10 07:32:46;;;;;;;;;4.00;3.00;;;;;28.41;37.85;99078.41;6286587;27;97449;-63
2021/07/10 07:35:49;;;;;;;;;3.00;3.00;;;;;28.38;38.05;99077.13;6282833;27;97466;-63
2021/07/10 07:38:54;;;;;;;;;3.00;3.00;;;;;28.39;38.02;99075.97;6281315;27;97000;-63
2021/07/10 07:41:57;;;;;;;;;3.00;3.00;;;;;28.33;38.35;99070.97;6286218;27;96447;-63
2021/07/10 07:45:02;;;;;;;;;2.00;2.00;;;;;28.36;38.19;99076.66;6283601;27;97497;-63
2021/07/10 07:48:06;;;;;;;;;3.00;3.00;;;;;28.34;37.59;99078.97;6284613;27;97514;-63
2021/07/10 07:51:09;;;;;;;;;3.00;2.40;;;;;28.29;38.36;99062.50;6289884;27;97690;-63
2021/07/10 07:54:12;;;;;;;;;3.00;3.00;;;;;28.46;38.16;99080.19;6290381;27;97460;-63
2021/07/10 07:57:16;;;;;;;;;2.00;2.00;;;;;28.56;37.58;99082.56;6289389;27;97705;-63
2021/07/10 08:00:23;;;;;;;;;4.00;4.00;;;;;28.87;37.41;99085.84;6290212;27;96752;-63
2021/07/10 08:03:29;;;;;;;;;4.00;3.00;;;;;28.98;37.36;99089.81;6287154;27;97475;-62
2021/07/10 08:06:32;;;;;;;;;3.00;3.00;;;;;28.98;37.22;99089.03;6289982;27;97036;-62
2021/07/10 08:09:36;;;;;;;;;3.00;3.00;;;;;28.90;37.38;99087.09;6288966;27;99919;-62
2021/07/10 08:12:40;;;;;;;;;3.00;3.00;;;;;28.70;37.01;99075.63;6294264;27;97706;-63
2021/07/10 08:15:44;;;;;;;;;3.00;3.00;;;;;28.67;38.13;99081.03;6290982;27;97306;-62
2021/07/10 08:18:48;;;;;;;;;2.00;2.00;;;;;28.67;37.82;99092.13;6288859;27;97034;-62
2021/07/10 08:21:51;;;;;;;;;3.00;3.00;;;;;28.66;37.56;99090.50;6289402;27;96648;-62
2021/07/10 08:24:54;;;;;;;;;4.00;4.00;;;;;28.70;37.76;99085.91;6291079;27;97151;-62
2021/07/10 08:27:57;;;;;;;;;4.00;4.00;;;;;28.89;37.20;99086.28;6290941;27;96577;-62
2021/07/10 08:31:02;;;;;;;;;1.00;1.00;;;;;29.10;37.58;99089.91;6289662;27;97413;-62
2021/07/10 08:34:06;;;;;;;;;2.00;2.00;;;;;29.19;35.43;99085.06;6290548;27;96957;-63
2021/07/10 08:37:10;;;;;;;;;4.00;3.75;;;;;29.39;35.95;99094.56;6290925;27;97400;-63
2021/07/10 08:40:15;;;;;;;;;3.00;3.00;;;;;29.51;35.17;99094.63;6289369;27;96757;-63
2021/07/10 08:43:18;;;;;;;;;4.00;4.00;;;;;29.89;36.30;99085.28;6289727;27;96461;-63
2021/07/10 08:46:23;;;;;;;;;3.00;3.00;;;;;29.96;34.91;99094.66;6289492;27;97191;-63
2021/07/10 08:49:27;;;;;;;;;3.50;3.50;;;;;30.02;33.74;99090.50;6282594;27;97395;-63
2021/07/10 08:52:30;;;;;;;;;3.25;3.25;;;;;30.09;33.71;99093.53;6288352;27;97758;-63
2021/07/10 08:55:36;;;;;;;;;3.00;3.00;;;;;29.96;33.59;99079.94;6289161;27;96617;-63
2021/07/10 08:58:39;;;;;;;;;3.00;3.00;;;;;30.20;33.15;99088.34;6289677;27;96571;-62
2021/07/10 09:01:44;;;;;;;;;3.00;3.00;;;;;30.53;33.24;99085.47;6279411;27;97397;-62
2021/07/10 09:04:47;;;;;;;;;2.00;2.00;;;;;30.60;32.39;99079.31;6289868;27;97516;-62
2021/07/10 09:08:16;;;;;;;;;2.40;2.40;;;;;30.34;33.03;99093.56;6289123;27;97109;-63
2021/07/10 09:11:19;;;;;;;;;3.00;2.00;;;;;30.33;33.22;99087.19;6289266;27;97474;-62
2021/07/10 09:14:29;;;;;;;;;4.00;4.00;;;;;30.44;32.69;99093.91;6289367;27;96636;-63
2021/07/10 09:17:46;;;;;;;;;2.00;2.00;;;;;30.98;32.86;99094.44;6286925;27;97064;-62
2021/07/10 09:20:49;;;;;;;;;3.00;2.80;;;;;31.37;32.40;99089.25;6289801;27;96579;-62
2021/07/10 09:23:53;;;;;;;;;2.00;2.00;;;;;31.63;32.23;99088.81;6286711;27;97505;-62
2021/07/10 09:26:59;;;;;;;;;3.00;3.00;;;;;31.66;30.58;99086.13;6284725;27;96614;-62
2021/07/10 09:30:08;;;;;;;;;3.00;3.00;;;;;31.93;31.00;99092.81;6287598;27;97600;-64
2021/07/10 09:33:16;;;;;;;;;3.00;3.00;;;;;31.95;30.84;99089.69;6289038;27;96701;-64
2021/07/10 09:36:19;;;;;;;;;3.20;3.00;;;;;31.93;31.70;99095.59;6288957;27;96937;-63
2021/07/10 09:39:25;;;;;;;;;3.00;2.75;;;;;31.93;31.19;99095.59;6286444;27;99041;-63
2021/07/10 09:42:32;;;;;;;;;3.00;3.00;;;;;31.86;30.50;99089.84;6288492;27;97537;-63
2021/07/10 09:45:40;;;;;;;;;3.00;3.00;;;;;31.80;30.22;99099.66;6288494;27;97529;-63
2021/07/10 09:48:44;;;;;;;;;3.00;3.00;;;;;31.89;31.01;99094.72;6289066;27;96590;-63
2021/07/10 09:51:49;;;;;;;;;3.00;3.00;;;;;32.13;31.17;99089.00;6276704;27;98310;-62
2021/07/10 09:54:54;;;;;;;;;3.75;3.75;;;;;32.17;30.07;99075.13;6288276;27;97453;-63
2021/07/10 09:58:00;;;;;;;;;4.00;4.00;;;;;32.44;30.16;99088.19;6283045;27;96648;-65
2021/07/10 10:01:31;;;;;;;;;3.00;3.00;;;;;32.43;29.96;99103.31;6278236;27;96744;-63
2021/07/10 10:04:36;;;;;;;;;4.00;4.00;;;;;32.44;29.93;99104.94;6288373;27;96512;-63
2021/07/10 10:07:46;;;;;;;;;3.20;3.20;;;;;32.47;30.14;99101.41;6286815;27;97040;-63
2021/07/10 10:10:54;;;;;;;;;5.00;3.60;;;;;32.48;30.06;99100.25;6264945;27;96649;-63
2021/07/10 10:14:07;;;;;;;;;4.00;4.00;;;;;32.18;29.87;99094.31;6286269;27;96791;-63
2021/07/10 10:17:11;;;;;;;;;4.00;4.00;;;;;32.09;31.31;99093.66;6283802;27;96927;-63
2021/07/10 10:20:19;;;;;;;;;4.00;4.00;;;;;32.11;31.61;99099.69;6277940;27;97400;-62
2021/07/10 10:23:23;;;;;;;;;3.00;3.00;;;;;32.36;31.07;99093.94;6287960;27;97428;-63
2021/07/10 10:26:26;;;;;;;;;4.00;4.00;;;;;32.63;31.57;99093.03;6296067;27;99751;-63
2021/07/10 10:29:30;;;;;;;;;4.40;4.00;;;;;32.98;30.78;99090.25;6287445;27;96730;-64
2021/07/10 10:32:34;;;;;;;;;4.00;4.00;;;;;33.33;29.64;99087.44;6286349;27;98024;-63
2021/07/10 10:35:38;;;;;;;;;3.00;3.00;;;;;33.61;29.05;99090.00;6287168;27;97436;-63
2021/07/10 10:38:41;;;;;;;;;4.00;4.00;;;;;33.54;28.45;99085.06;6286783;27;97557;-63
2021/07/10 10:41:48;;;;;;;;;5.00;5.00;;;;;33.41;29.34;99090.03;6287354;27;97094;-63
2021/07/10 10:44:59;;;;;;;;;5.00;5.00;;;;;33.22;28.91;99092.81;6287337;27;96729;-63
2021/07/10 10:48:02;;;;;;;;;4.80;4.00;;;;;33.13;29.34;99097.78;6287293;27;96689;-63
2021/07/10 10:51:28;;;;;;;;;4.75;4.00;;;;;33.14;29.17;99093.78;6287246;27;98417;-63
2021/07/10 10:54:31;;;;;;;;;4.00;4.00;;;;;32.92;28.69;99086.13;6285344;27;96793;-63
2021/07/10 10:57:39;;;;;;;;;4.00;4.00;;;;;32.63;28.84;99091.06;6287061;27;97036;-63
2021/07/10 11:00:47;;;;;;;;;4.50;4.00;;;;;32.47;29.41;99087.44;6287564;27;96552;-63
2021/07/10 11:03:50;;;;;;;;;4.00;4.00;;;;;32.40;29.91;99086.47;6286989;27;96952;-63
2021/07/10 11:07:24;;;;;;;;;6.00;6.00;;;;;32.35;30.65;99070.81;6286573;27;96584;-63
2021/07/10 11:10:27;;;;;;;;;5.00;4.00;;;;;32.25;30.50;99068.59;6286409;27;96458;-63
2021/07/10 11:13:31;;;;;;;;;5.00;5.00;;;;;32.22;29.99;99070.09;6280438;27;96946;-62
2021/07/10 11:16:36;;;;;;;;;4.00;4.00;;;;;32.18;30.83;99071.19;6285358;27;97198;-63
2021/07/10 11:19:47;;;;;;;;;4.00;4.00;;;;;32.03;31.16;99058.81;6286049;27;97425;-63
2021/07/10 11:23:02;;;;;;;;;5.00;5.00;;;;;31.93;30.78;99061.34;6267656;27;96615;-63
2021/07/10 11:26:14;;;;;;;;;4.00;4.00;;;;;31.82;30.44;99064.66;6286321;27;97504;-63
2021/07/10 11:29:19;;;;;;;;;3.00;3.00;;;;;31.83;31.03;99071.84;6297558;27;97424;-63
2021/07/10 11:32:26;;;;;;;;;5.00;4.00;;;;;31.75;31.19;99064.47;6286690;27;97549;-63
2021/07/10 11:35:36;;;;;;;;;3.00;3.00;;;;;31.69;30.43;99067.88;6286867;27;96932;-63
2021/07/10 11:38:41;;;;;;;;;3.80;3.80;;;;;31.61;31.33;99061.31;6286634;27;97533;-63
2021/07/10 11:41:46;;;;;;;;;3.00;3.00;;;;;31.81;30.99;99065.03;6298754;27;97259;-63
2021/07/10 11:44:51;;;;;;;;;4.00;4.00;;;;;32.02;31.06;99059.97;6286742;27;97613;-62
2021/07/10 11:47:57;;;;;;;;;2.60;2.60;;;;;32.42;30.39;99059.00;6287064;27;97263;-64
2021/07/10 11:51:07;;;;;;;;;3.00;3.00;;;;;33.03;30.53;99054.47;6286504;27;96760;-63
2021/07/10 11:54:12;;;;;;;;;3.67;3.67;;;;;33.24;29.21;99050.50;6287233;27;97368;-63
2021/07/10 11:57:16;;;;;;;;;3.00;2.00;;;;;33.44;28.95;99047.34;6285815;27;97556;-63
2021/07/10 12:00:20;;;;;;;;;5.00;5.00;;;;;33.77;27.90;99048.81;6286713;27;97079;-62
2021/07/10 12:03:24;;;;;;;;;4.00;4.00;;;;;34.09;27.08;99044.56;6273528;27;97094;-62
2021/07/10 12:06:28;;;;;;;;;4.00;4.00;;;;;34.04;27.87;99042.09;6285360;27;98952;-65
2021/07/10 12:09:50;;;;;;;;;4.00;3.40;;;;;33.91;27.15;99043.47;6285878;27;96440;-63
2021/07/10 12:12:55;;;;;;;;;3.75;3.75;;;;;33.72;27.25;99035.91;6280128;27;97731;-64
2021/07/10 12:16:00;;;;;;;;;3.75;3.00;;;;;33.99;28.69;99036.81;6285628;27;96587;-63
2021/07/10 12:19:04;;;;;;;;;4.00;4.00;;;;;34.29;27.35;99020.13;6285848;27;96919;-63
2021/07/10 12:22:08;;;;;;;;;4.00;4.00;;;;;34.60;28.26;99030.22;6282377;27;97051;-63
2021/07/10 12:25:14;;;;;;;;;5.00;5.00;;;;;34.76;27.35;99022.44;6283830;27;97551;-64
2021/07/10 12:28:28;;;;;;;;;5.00;4.00;;;;;34.77;27.16;99007.25;6285358;27;97474;-64
2021/07/10 12:31:34;;;;;;;;;3.00;3.00;;;;;35.06;27.03;99026.06;6286255;27;96496;-63
2021/07/10 12:34:46;;;;;;;;;3.75;3.00;;;;;34.98;26.52;99021.56;6288636;27;98001;-63
2021/07/10 12:37:49;;;;;;;;;4.00;4.00;;;;;35.01;27.59;99020.78;6289264;27;97213;-62
2021/07/10 12:40:53;;;;;;;;;3.00;3.00;;;;;35.14;26.20;99016.53;6281102;27;96873;-63
2021/07/10 12:44:12;;;;;;;;;4.00;4.00;;;;;34.80;25.87;99019.72;6277663;27;96550;-63
2021/07/10 12:47:19;;;;;;;;;3.25;3.25;;;;;34.53;27.31;99027.28;6290627;27;97403;-63
2021/07/10 12:50:23;;;;;;;;;3.00;3.00;;;;;34.36;26.80;99015.44;6281320;27;97478;-62
2021/07/10 12:53:31;;;;;;;;;3.00;3.00;;;;;34.17;27.25;99011.91;6287635;27;98066;-63
2021/07/10 12:56:42;;;;;;;;;3.00;3.00;;;;;34.05;28.29;99015.72;6288327;27;97479;-63
2021/07/10 12:59:56;;;;;;;;;4.00;4.00;;;;;34.06;28.10;99003.38;6287930;27;97873;-62
2021/07/10 13:03:02;;;;;;;;;4.25;4.25;;;;;34.29;28.78;99003.34;6289432;27;97337;-63
2021/07/10 13:06:06;;;;;;;;;4.50;4.50;;;;;34.44;27.42;99009.97;6289241;27;97439;-63
2021/07/10 13:09:09;;;;;;;;;3.25;3.25;;;;;34.48;28.33;99016.41;6287750;27;96592;-63
2021/07/10 13:12:14;;;;;;;;;5.00;5.00;;;;;34.60;27.09;99005.00;6288634;27;97462;-63
2021/07/10 13:15:20;;;;;;;;;6.40;6.00;;;;;34.77;27.55;99008.06;6289111;27;97155;-63
2021/07/10 13:18:25;;;;;;;;;4.00;4.00;;;;;34.57;27.51;99008.53;6279541;27;97526;-63
2021/07/10 13:21:30;;;;;;;;;3.00;3.00;;;;;34.51;26.84;99013.66;6275436;27;96757;-63
2021/07/10 13:24:34;;;;;;;;;3.00;3.00;;;;;34.40;26.97;99004.31;6287480;27;97532;-63
2021/07/10 13:27:38;;;;;;;;;5.00;5.00;;;;;34.21;26.69;99005.22;6288565;27;96661;-64
2021/07/10 13:30:42;;;;;;;;;4.00;4.00;;;;;34.32;26.73;99005.38;6282780;27;96564;-63
2021/07/10 13:33:50;;;;;;;;;4.60;4.00;;;;;34.44;26.60;98999.56;6288317;27;97680;-63
2021/07/10 13:36:55;;;;;;;;;3.00;3.00;;;;;34.47;26.59;98984.81;6289010;27;97447;-63
2021/07/10 13:39:58;;;;;;;;;3.00;3.00;;;;;34.43;26.37;98994.34;6288237;27;97956;-63
2021/07/10 13:43:03;;;;;;;;;3.00;3.00;;;;;34.65;26.90;98991.47;6288198;27;96592;-63
2021/07/10 13:46:08;;;;;;;;;3.00;3.00;;;;;34.54;26.90;98989.72;6288237;27;97528;-63
2021/07/10 13:49:36;;;;;;;;;4.00;4.00;;;;;34.35;26.12;98991.47;6286112;27;98429;-63
2021/07/10 13:52:41;;;;;;;;;6.00;5.25;;;;;34.03;26.75;98981.72;6281507;27;96678;-63
2021/07/10 13:55:46;;;;;;;;;4.80;3.20;;;;;33.67;27.31;98990.66;6287979;27;97286;-63
2021/07/10 13:59:02;;;;;;;;;4.00;4.00;;;;;33.53;28.06;98986.41;6275173;27;97774;-63
2021/07/10 14:02:06;;;;;;;;;5.00;4.40;;;;;33.48;27.93;98980.31;6277591;27;96566;-63
2021/07/10 14:05:13;;;;;;;;;4.00;4.00;;;;;33.46;28.47;98980.72;6285770;27;97182;-64
2021/07/10 14:08:18;;;;;;;;;11.00;11.00;;;;;33.65;28.06;98977.03;6287465;27;97376;-63
2021/07/10 14:11:21;;;;;;;;;4.00;4.00;;;;;33.83;28.15;98967.00;6288313;27;97542;-63
2021/07/10 14:14:28;;;;;;;;;5.00;5.00;;;;;34.05;28.26;98972.94;6287188;27;96910;-65
2021/07/10 14:17:31;;;;;;;;;5.00;5.00;;;;;34.01;27.76;98964.50;6288036;27;96428;-64
2021/07/10 14:20:35;;;;;;;;;5.00;5.00;;;;;33.84;27.62;98970.59;6288366;27;97468;-66
2021/07/10 14:23:55;;;;;;;;;5.00;5.00;;;;;33.81;28.06;98963.78;6288261;27;97112;-63
2021/07/10 14:26:59;;;;;;;;;5.00;4.40;;;;;33.88;28.00;98965.88;6287388;27;97478;-64
2021/07/10 14:30:05;;;;;;;;;5.00;5.00;;;;;33.92;28.60;98961.13;6286966;27;97148;-64
2021/07/10 14:33:20;;;;;;;;;5.00;4.40;;;;;33.97;27.98;98960.00;6282656;27;97442;-63